Time;durP1;ratioP1;P1;durP2;ratioP2;P2;SDS_P1;SDS_P2;PMS_P1;PMS_P2;Temp;Humidity;BMP_temperature;BMP_pressure;BME280_temperature;BME280_humidity;BME280_pressure;Samples;Min_cycle;Max_cycle;Signal;HPM_P1;HPM_P2
2021/03/24 00:01:08;;;;;;;69.00;40.40;;;6.70;99.90;;;;;;5040307;28;20326;-76
2021/03/24 00:03:35;;;;;;;70.13;40.63;;;6.70;99.90;;;;;;5041086;28;20219;-77
2021/03/24 00:06:01;;;;;;;70.87;42.40;;;6.60;99.90;;;;;;5041024;28;20216;-77
2021/03/24 00:08:28;;;;;;;75.90;41.97;;;6.60;99.90;;;;;;5041730;28;20566;-76
2021/03/24 00:10:55;;;;;;;69.70;41.67;;;6.60;99.90;;;;;;5040942;28;20231;-78
2021/03/24 00:13:22;;;;;;;69.10;41.13;;;6.60;99.90;;;;;;5040817;28;20286;-77
2021/03/24 00:15:49;;;;;;;67.57;40.10;;;6.60;99.90;;;;;;5039993;28;20204;-76
2021/03/24 00:18:16;;;;;;;72.70;40.63;;;6.50;99.90;;;;;;5040180;28;20214;-79
2021/03/24 00:20:43;;;;;;;68.07;41.47;;;6.50;99.90;;;;;;5041255;28;20213;-77
2021/03/24 00:23:10;;;;;;;69.30;40.33;;;6.50;99.90;;;;;;5039080;28;20200;-77
2021/03/24 00:25:37;;;;;;;66.50;39.83;;;6.40;99.90;;;;;;5040938;28;20214;-77
2021/03/24 00:28:05;;;;;;;63.80;38.37;;;6.40;99.90;;;;;;5039797;28;20207;-76
2021/03/24 00:30:34;;;;;;;65.37;39.70;;;6.40;99.90;;;;;;5040525;28;20212;-77
2021/03/24 00:33:00;;;;;;;78.40;43.40;;;6.30;99.90;;;;;;5041309;28;20212;-78
2021/03/24 00:35:27;;;;;;;71.73;41.40;;;6.20;99.90;;;;;;5040826;28;20806;-76
2021/03/24 00:37:53;;;;;;;68.70;41.90;;;6.10;99.90;;;;;;5039745;28;20554;-77
2021/03/24 00:40:24;;;;;;;74.07;41.47;;;6.20;99.90;;;;;;5042329;28;20207;-78
2021/03/24 00:42:51;;;;;;;66.47;41.57;;;6.10;99.90;;;;;;5040473;28;20622;-79
2021/03/24 00:45:19;;;;;;;74.40;41.77;;;6.20;99.90;;;;;;5039787;28;20577;-76
2021/03/24 00:47:45;;;;;;;75.63;44.00;;;6.10;99.90;;;;;;5039755;28;20290;-76
2021/03/24 00:50:15;;;;;;;73.40;43.97;;;6.10;99.90;;;;;;5039559;28;20291;-76
2021/03/24 00:52:41;;;;;;;74.37;43.83;;;6.10;99.90;;;;;;5039960;28;20219;-76
2021/03/24 00:55:08;;;;;;;73.70;43.80;;;6.10;99.90;;;;;;5039699;28;20214;-76
2021/03/24 00:57:35;;;;;;;75.20;44.43;;;6.00;99.90;;;;;;5040502;28;20304;-76
2021/03/24 01:00:01;;;;;;;76.47;45.17;;;6.10;99.90;;;;;;5038649;28;20219;-76
2021/03/24 01:02:28;;;;;;;80.23;45.40;;;6.10;99.90;;;;;;5038977;28;20223;-76
2021/03/24 01:04:55;;;;;;;81.93;46.77;;;6.10;99.90;;;;;;5038949;28;20204;-77
2021/03/24 01:07:21;;;;;;;82.27;44.93;;;6.10;99.90;;;;;;5038704;28;20208;-76
2021/03/24 01:09:47;;;;;;;82.17;44.30;;;6.20;99.90;;;;;;5038963;28;20261;-76
2021/03/24 01:12:14;;;;;;;73.17;44.90;;;6.10;99.90;;;;;;5039135;28;20234;-76
2021/03/24 01:14:40;;;;;;;83.87;45.97;;;6.10;99.90;;;;;;5038947;28;20204;-78
2021/03/24 01:17:07;;;;;;;81.53;46.37;;;6.10;99.90;;;;;;5039858;28;20262;-77
2021/03/24 01:19:34;;;;;;;75.40;43.10;;;6.10;99.90;;;;;;5040879;28;20205;-78
2021/03/24 01:22:01;;;;;;;76.63;44.37;;;6.10;99.90;;;;;;5040247;28;20210;-78
2021/03/24 01:24:27;;;;;;;82.87;44.73;;;6.00;99.90;;;;;;5039589;28;20267;-79
2021/03/24 01:26:53;;;;;;;82.27;45.83;;;6.10;99.90;;;;;;5039577;28;20206;-78
2021/03/24 01:29:20;;;;;;;75.83;44.07;;;6.10;99.90;;;;;;5037891;28;20292;-79
2021/03/24 01:31:46;;;;;;;79.60;44.43;;;6.30;99.90;;;;;;5040230;28;20269;-79
2021/03/24 01:34:12;;;;;;;85.60;43.63;;;6.10;99.90;;;;;;5039422;28;20207;-78
2021/03/24 01:36:40;;;;;;;73.47;43.90;;;6.10;99.90;;;;;;5038960;28;20299;-79
2021/03/24 01:39:07;;;;;;;74.90;44.13;;;6.10;99.90;;;;;;5038620;28;20614;-79
2021/03/24 01:41:34;;;;;;;74.87;42.17;;;6.10;99.90;;;;;;5039969;28;20200;-77
2021/03/24 01:44:00;;;;;;;81.00;45.70;;;6.20;99.90;;;;;;5039932;28;20214;-77
2021/03/24 01:46:41;;;;;;;76.73;43.10;;;6.10;99.90;;;;;;5040457;28;20204;-79
2021/03/24 01:49:16;;;;;;;82.30;45.20;;;6.10;99.90;;;;;;5039111;28;20210;-79
2021/03/24 01:51:46;;;;;;;77.13;44.63;;;6.00;99.90;;;;;;5038596;28;20227;-80
2021/03/24 01:54:15;;;;;;;80.03;44.63;;;6.00;99.90;;;;;;5039467;28;20211;-80
2021/03/24 01:56:46;;;;;;;83.83;45.70;;;6.00;99.90;;;;;;5039182;28;20207;-77
2021/03/24 01:59:13;;;;;;;75.07;43.43;;;6.00;99.90;;;;;;5039166;28;20212;-79
2021/03/24 02:01:39;;;;;;;83.53;46.47;;;6.00;99.90;;;;;;5039863;28;20207;-76
2021/03/24 02:04:06;;;;;;;83.87;45.63;;;6.00;99.90;;;;;;5039733;28;20294;-77
2021/03/24 02:06:39;;;;;;;89.40;49.30;;;6.00;99.90;;;;;;5039167;28;20223;-77
2021/03/24 02:09:14;;;;;;;80.27;44.83;;;6.00;99.90;;;;;;5039369;28;20208;-78
2021/03/24 02:11:50;;;;;;;86.87;48.30;;;6.00;99.90;;;;;;5038375;28;20230;-78
2021/03/24 02:14:20;;;;;;;82.10;46.80;;;5.90;99.90;;;;;;5038708;28;20203;-76
2021/03/24 02:16:49;;;;;;;91.43;50.07;;;6.20;99.90;;;;;;5038572;28;20679;-78
2021/03/24 02:19:48;;;;;;;93.93;47.97;;;6.00;99.90;;;;;;5037799;28;20298;-78
2021/03/24 02:22:18;;;;;;;92.33;50.07;;;5.80;99.90;;;;;;5029134;28;20211;-78
2021/03/24 02:24:52;;;;;;;87.10;48.53;;;5.80;99.90;;;;;;5037452;28;20290;-78
2021/03/24 02:27:22;;;;;;;83.10;48.77;;;5.80;99.90;;;;;;5037069;28;20856;-77
2021/03/24 02:29:55;;;;;;;87.27;46.37;;;5.90;99.90;;;;;;5038094;28;20207;-77
2021/03/24 02:32:26;;;;;;;87.00;48.87;;;6.20;99.90;;;;;;5037212;28;20266;-79
2021/03/24 02:34:56;;;;;;;88.57;47.63;;;5.80;99.90;;;;;;5038160;28;20531;-76
2021/03/24 02:37:23;;;;;;;89.57;47.73;;;5.90;99.90;;;;;;5040236;28;20206;-76
2021/03/24 02:39:50;;;;;;;93.20;48.20;;;5.90;99.90;;;;;;5037936;28;20200;-76
2021/03/24 02:42:19;;;;;;;87.97;47.33;;;5.90;99.90;;;;;;5039407;28;20212;-76
2021/03/24 02:44:46;;;;;;;86.90;46.63;;;6.00;99.90;;;;;;5037212;28;20207;-76
2021/03/24 02:47:14;;;;;;;83.27;47.60;;;6.00;99.90;;;;;;5038249;28;20206;-77
2021/03/24 02:49:43;;;;;;;84.07;47.47;;;6.00;99.90;;;;;;5037250;28;21032;-77
2021/03/24 02:52:12;;;;;;;86.47;48.33;;;6.10;99.90;;;;;;5037081;28;20226;-77
2021/03/24 02:54:41;;;;;;;86.80;49.40;;;6.10;99.90;;;;;;5037695;28;20212;-78
2021/03/24 02:57:07;;;;;;;88.37;47.30;;;6.00;99.90;;;;;;5038960;28;20235;-77
2021/03/24 02:59:35;;;;;;;90.40;48.83;;;6.10;99.90;;;;;;5037720;28;20214;-77
2021/03/24 03:02:07;;;;;;;87.77;49.07;;;6.10;99.90;;;;;;5037611;28;20217;-77
2021/03/24 03:04:37;;;;;;;84.03;47.63;;;6.10;99.90;;;;;;5038616;28;20203;-77
2021/03/24 03:07:08;;;;;;;83.50;47.37;;;6.10;99.90;;;;;;5038512;28;20208;-77
2021/03/24 03:09:40;;;;;;;85.40;47.57;;;6.10;99.90;;;;;;5038066;28;20203;-78
2021/03/24 03:12:13;;;;;;;93.40;50.63;;;6.00;99.90;;;;;;5038261;28;20242;-79
2021/03/24 03:14:46;;;;;;;81.27;45.97;;;6.00;99.90;;;;;;5039155;28;20200;-77
2021/03/24 03:17:17;;;;;;;88.47;48.33;;;6.00;99.90;;;;;;5038307;28;20207;-76
2021/03/24 03:19:45;;;;;;;83.27;45.97;;;6.10;99.90;;;;;;5038118;28;20207;-77
2021/03/24 03:22:16;;;;;;;91.87;48.63;;;6.00;99.90;;;;;;5039497;28;20207;-77
2021/03/24 03:24:47;;;;;;;94.87;47.20;;;5.90;99.90;;;;;;5037413;28;20200;-76
2021/03/24 03:27:16;;;;;;;89.30;48.90;;;5.90;99.90;;;;;;5036408;28;20688;-76
2021/03/24 03:29:44;;;;;;;85.30;47.17;;;5.90;99.90;;;;;;5036725;28;20227;-78
2021/03/24 03:32:15;;;;;;;84.30;48.57;;;5.90;99.90;;;;;;5038384;28;20710;-77
2021/03/24 03:34:44;;;;;;;81.70;49.27;;;5.90;99.90;;;;;;5037212;28;20254;-77
2021/03/24 03:37:11;;;;;;;86.90;46.63;;;5.90;99.90;;;;;;5037433;28;20204;-77
2021/03/24 03:39:38;;;;;;;86.87;47.90;;;5.90;99.90;;;;;;5037713;28;20265;-78
2021/03/24 03:42:07;;;;;;;82.47;46.27;;;5.90;99.90;;;;;;5038268;28;20245;-76
2021/03/24 03:44:35;;;;;;;82.83;48.00;;;5.80;99.90;;;;;;5037838;28;20211;-77
2021/03/24 03:47:07;;;;;;;87.00;49.20;;;5.80;99.90;;;;;;5035964;28;20203;-78
2021/03/24 03:49:36;;;;;;;87.80;48.13;;;5.90;99.90;;;;;;5036252;28;20250;-78
2021/03/24 03:52:18;;;;;;;82.87;46.53;;;5.90;99.90;;;;;;5037174;28;20235;-78
2021/03/24 03:54:49;;;;;;;83.43;48.40;;;5.80;99.90;;;;;;5036535;28;21471;-76
2021/03/24 03:57:23;;;;;;;82.10;47.80;;;5.80;99.90;;;;;;5036878;28;20246;-79
2021/03/24 03:59:54;;;;;;;84.03;48.00;;;5.90;99.90;;;;;;5039110;28;20220;-77
2021/03/24 04:02:26;;;;;;;88.23;47.93;;;5.90;99.90;;;;;;5038365;28;20223;-76
2021/03/24 04:04:59;;;;;;;86.37;47.90;;;5.90;99.90;;;;;;5037466;28;20200;-77
2021/03/24 04:07:31;;;;;;;88.33;48.47;;;5.90;99.90;;;;;;5037967;28;20292;-77
2021/03/24 04:09:58;;;;;;;89.80;48.17;;;5.90;99.90;;;;;;5037093;28;20635;-77
2021/03/24 04:12:28;;;;;;;81.97;47.17;;;5.90;99.90;;;;;;5037360;28;20253;-77
2021/03/24 04:14:54;;;;;;;90.50;48.53;;;5.80;99.90;;;;;;5040422;28;20215;-77
2021/03/24 04:17:26;;;;;;;87.47;48.97;;;5.80;99.90;;;;;;5040196;28;20226;-77
2021/03/24 04:19:54;;;;;;;90.80;48.30;;;5.70;99.90;;;;;;5040336;28;20202;-77
2021/03/24 04:22:24;;;;;;;89.77;50.53;;;5.70;99.90;;;;;;5039562;28;20211;-77
2021/03/24 04:24:54;;;;;;;93.20;51.23;;;5.70;99.90;;;;;;5040986;28;20249;-76
2021/03/24 04:27:24;;;;;;;81.23;47.97;;;5.70;99.90;;;;;;5040674;28;20211;-77
2021/03/24 04:29:54;;;;;;;85.40;48.93;;;5.70;99.90;;;;;;5040695;28;20206;-76
2021/03/24 04:32:22;;;;;;;93.43;50.77;;;5.70;99.90;;;;;;5041615;28;20220;-77
2021/03/24 04:34:48;;;;;;;82.87;47.20;;;5.70;99.90;;;;;;5040275;28;20199;-78
2021/03/24 04:37:20;;;;;;;86.03;49.13;;;5.60;99.90;;;;;;5039988;28;20294;-77
2021/03/24 04:39:50;;;;;;;87.03;48.17;;;5.60;99.90;;;;;;5039404;28;20214;-78
2021/03/24 04:42:20;;;;;;;88.17;49.80;;;5.60;99.90;;;;;;5040710;28;20361;-78
2021/03/24 04:44:51;;;;;;;87.47;48.60;;;5.50;99.90;;;;;;5039162;28;20732;-77
2021/03/24 04:47:20;;;;;;;83.50;49.10;;;5.50;99.90;;;;;;5039680;28;20575;-78
2021/03/24 04:49:52;;;;;;;83.57;48.63;;;5.40;99.90;;;;;;5039291;28;20671;-78
2021/03/24 04:52:20;;;;;;;89.70;50.60;;;5.40;99.90;;;;;;5039895;28;20224;-78
2021/03/24 04:54:50;;;;;;;87.93;49.43;;;5.30;99.90;;;;;;5041148;28;20295;-78
2021/03/24 04:57:20;;;;;;;91.00;49.20;;;5.40;99.90;;;;;;5040006;28;20287;-78
2021/03/24 04:59:50;;;;;;;94.80;51.27;;;5.30;99.90;;;;;;5039330;28;20250;-78
2021/03/24 05:02:21;;;;;;;91.33;48.87;;;5.30;99.90;;;;;;5039863;28;20290;-77
2021/03/24 05:04:53;;;;;;;90.40;50.93;;;5.30;99.90;;;;;;5040158;28;20200;-78
2021/03/24 05:07:30;;;;;;;86.80;48.73;;;5.30;99.90;;;;;;5039126;28;20210;-78
2021/03/24 05:09:57;;;;;;;89.87;50.63;;;5.20;99.90;;;;;;5039317;28;20199;-77
2021/03/24 05:12:28;;;;;;;91.33;49.60;;;5.20;99.90;;;;;;5038674;28;20216;-77
2021/03/24 05:14:58;;;;;;;91.07;50.67;;;5.10;99.90;;;;;;5039809;28;20199;-78
2021/03/24 05:17:27;;;;;;;93.47;50.17;;;5.10;99.90;;;;;;5039287;28;20192;-77
2021/03/24 05:20:00;;;;;;;89.20;51.17;;;5.10;99.90;;;;;;5039803;28;20212;-77
2021/03/24 05:22:29;;;;;;;94.60;50.63;;;5.10;99.90;;;;;;5039728;28;20330;-77
2021/03/24 05:25:01;;;;;;;94.07;52.47;;;5.10;99.90;;;;;;5038728;28;20200;-76
2021/03/24 05:27:32;;;;;;;96.77;52.20;;;5.10;99.90;;;;;;5039253;28;20286;-77
2021/03/24 05:30:06;;;;;;;94.50;50.90;;;5.20;99.90;;;;;;5041032;28;20291;-77
2021/03/24 05:32:38;;;;;;;99.07;53.20;;;5.10;99.90;;;;;;5038889;28;20212;-76
2021/03/24 05:35:25;;;;;;;91.43;49.67;;;5.20;99.90;;;;;;5038203;28;20208;-77
2021/03/24 05:37:51;;;;;;;95.93;52.23;;;5.20;99.90;;;;;;5027832;28;20215;-77
2021/03/24 05:40:39;;;;;;;91.17;52.50;;;5.20;99.90;;;;;;5039693;28;20270;-77
2021/03/24 05:43:35;;;;;;;93.23;51.13;;;5.20;99.90;;;;;;5039563;28;20212;-77
2021/03/24 05:46:14;;;;;;;92.23;50.43;;;5.30;99.90;;;;;;5039793;28;20595;-77
2021/03/24 05:48:57;;;;;;;91.83;51.80;;;5.30;99.90;;;;;;5038711;28;20199;-77
2021/03/24 05:51:36;;;;;;;91.43;49.43;;;5.30;99.90;;;;;;5038304;28;20582;-78
2021/03/24 05:54:26;;;;;;;88.47;48.33;;;5.30;99.90;;;;;;5039399;28;20220;-78
2021/03/24 05:57:15;;;;;;;87.80;48.30;;;5.40;99.90;;;;;;5038566;28;20192;-77
2021/03/24 05:59:52;;;;;;;88.57;48.83;;;5.50;99.90;;;;;;5038757;28;20648;-79
2021/03/24 06:02:28;;;;;;;90.93;50.60;;;5.50;99.90;;;;;;5039401;28;20211;-78
2021/03/24 06:04:59;;;;;;;90.30;48.67;;;5.60;99.90;;;;;;5039675;28;20199;-79
2021/03/24 06:07:57;;;;;;;90.97;47.97;;;5.60;99.90;;;;;;5038998;28;20765;-78
2021/03/24 06:10:48;;;;;;;89.63;47.53;;;5.80;99.90;;;;;;5040072;28;20247;-78
2021/03/24 06:14:07;;;;;;;82.93;45.40;;;5.80;99.90;;;;;;5038072;28;20226;-77
2021/03/24 06:17:00;;;;;;;84.80;46.50;;;5.80;99.90;;;;;;5030054;28;20212;-76
2021/03/24 06:19:40;;;;;;;90.13;47.87;;;5.90;99.90;;;;;;5038759;28;20197;-78
2021/03/24 06:22:19;;;;;;;83.13;47.97;;;6.00;99.90;;;;;;5038863;28;20202;-77
2021/03/24 06:24:57;;;;;;;80.10;45.23;;;6.10;99.90;;;;;;5038655;28;20196;-77
2021/03/24 06:27:36;;;;;;;84.30;47.50;;;6.30;99.90;;;;;;5038482;28;20682;-78
2021/03/24 06:30:26;;;;;;;74.83;43.03;;;6.50;99.90;;;;;;5037906;28;20562;-77
2021/03/24 06:33:07;;;;;;;86.13;45.70;;;6.80;99.90;;;;;;5038080;28;20212;-78
2021/03/24 06:35:59;;;;;;;76.60;43.27;;;7.10;99.90;;;;;;5038251;28;20200;-79
2021/03/24 06:38:36;;;;;;;70.80;40.47;;;7.30;99.90;;;;;;5036515;28;20200;-77
2021/03/24 06:41:37;;;;;;;79.80;44.50;;;7.40;99.90;;;;;;5038721;28;20201;-77
2021/03/24 06:44:33;;;;;;;68.00;41.23;;;7.70;99.90;;;;;;5038649;28;20291;-78
2021/03/24 06:47:04;;;;;;;72.20;42.00;;;8.10;99.90;;;;;;5038744;28;20200;-77
2021/03/24 06:49:40;;;;;;;69.37;41.03;;;8.30;99.90;;;;;;5037855;28;20328;-77
2021/03/24 06:52:46;;;;;;;72.43;41.73;;;8.30;99.90;;;;;;5037400;28;20728;-77
2021/03/24 06:56:04;;;;;;;70.03;41.87;;;8.60;99.90;;;;;;5038443;28;20196;-78
2021/03/24 06:59:03;;;;;;;68.07;41.27;;;8.80;99.90;;;;;;5037187;28;20253;-78
2021/03/24 07:01:44;;;;;;;74.30;42.40;;;9.00;99.90;;;;;;5037560;28;21136;-77
2021/03/24 07:04:48;;;;;;;69.10;40.53;;;9.00;99.90;;;;;;5037778;28;20672;-78
2021/03/24 07:07:48;;;;;;;71.57;41.77;;;9.00;99.90;;;;;;4987216;28;20580;-77
2021/03/24 07:10:28;;;;;;;69.17;40.83;;;9.10;99.90;;;;;;5029109;28;20212;-77
2021/03/24 07:13:41;;;;;;;69.07;39.63;;;9.50;99.90;;;;;;5037835;28;20292;-77
2021/03/24 07:16:17;;;;;;;66.87;40.03;;;9.90;99.90;;;;;;5037768;28;20203;-77
2021/03/24 07:19:06;;;;;;;61.35;38.95;;;10.60;99.90;;;;;;5037892;28;20204;-78
2021/03/24 07:22:09;;;;;;;62.35;37.70;;;11.40;99.90;;;;;;5037027;28;20199;-78
2021/03/24 07:25:01;;;;;;;60.20;38.03;;;12.00;99.90;;;;;;5037193;28;20222;-77
2021/03/24 07:27:49;;;;;;;58.22;37.22;;;12.70;99.90;;;;;;5037266;28;20671;-77
2021/03/24 07:30:28;;;;;;;61.83;38.17;;;12.90;99.90;;;;;;5037119;28;20200;-77
2021/03/24 07:33:01;;;;;;;55.85;37.10;;;13.20;99.90;;;;;;5036561;28;20219;-78
2021/03/24 07:35:46;;;;;;;59.30;36.35;;;13.50;99.90;;;;;;5037483;28;20214;-77
2021/03/24 07:38:48;;;;;;;62.55;37.95;;;13.60;99.90;;;;;;5037467;28;20199;-80
2021/03/24 07:41:48;;;;;;;60.88;38.05;;;14.10;99.90;;;;;;5037782;28;20294;-81
2021/03/24 07:44:37;;;;;;;60.72;37.08;;;14.10;99.90;;;;;;5036367;28;20212;-78
2021/03/24 07:47:39;;;;;;;58.60;36.13;;;14.50;99.90;;;;;;5037319;28;20274;-77
2021/03/24 07:50:18;;;;;;;60.00;36.90;;;14.70;99.90;;;;;;5042448;28;20210;-79
2021/03/24 07:53:01;;;;;;;55.35;35.72;;;15.00;99.90;;;;;;5040896;28;20277;-76
2021/03/24 07:55:38;;;;;;;65.53;37.75;;;15.00;99.90;;;;;;5040822;28;20282;-77
2021/03/24 07:58:40;;;;;;;61.20;39.22;;;15.20;99.90;;;;;;5041034;28;20709;-80
2021/03/24 08:01:13;;;;;;;53.80;36.65;;;15.30;99.90;;;;;;5041132;28;20647;-79
2021/03/24 08:03:52;;;;;;;58.92;37.67;;;15.00;99.90;;;;;;5041858;28;20658;-79
2021/03/24 08:06:27;;;;;;;59.17;36.22;;;15.40;99.90;;;;;;5041278;28;20249;-77
2021/03/24 08:09:18;;;;;;;56.03;37.22;;;15.50;99.90;;;;;;5039851;28;20195;-76
2021/03/24 08:11:54;;;;;;;59.58;37.50;;;15.10;99.90;;;;;;5041436;28;20223;-77
2021/03/24 08:14:50;;;;;;;58.63;36.67;;;15.20;99.90;;;;;;5040165;28;20656;-77
2021/03/24 08:17:34;;;;;;;59.20;37.85;;;15.80;99.90;;;;;;5039606;28;20218;-78
2021/03/24 08:20:23;;;;;;;57.17;37.25;;;16.00;99.90;;;;;;5039765;28;20200;-77
2021/03/24 08:23:09;;;;;;;56.38;37.65;;;16.10;99.90;;;;;;5040810;28;20656;-78
2021/03/24 08:25:46;;;;;;;57.20;37.00;;;16.20;99.90;;;;;;5040553;28;20210;-78
2021/03/24 08:28:21;;;;;;;56.38;35.65;;;16.50;99.90;;;;;;5040780;28;20261;-78
2021/03/24 08:31:20;;;;;;;60.45;36.38;;;16.60;99.90;;;;;;5039449;28;20203;-77
2021/03/24 08:33:59;;;;;;;57.78;37.53;;;16.70;99.90;;;;;;5039694;28;20199;-78
2021/03/24 08:36:53;;;;;;;53.83;36.88;;;16.80;99.90;;;;;;5039737;28;20640;-78
2021/03/24 08:39:50;;;;;;;55.03;36.13;;;17.30;99.90;;;;;;5010972;28;20294;-76
2021/03/24 08:42:56;;;;;;;53.90;33.92;;;17.70;99.90;;;;;;5037835;28;20222;-76
2021/03/24 08:45:27;;;;;;;55.30;35.75;;;18.00;99.90;;;;;;5040469;28;20287;-77
2021/03/24 08:47:58;;;;;;;56.90;36.53;;;17.80;99.90;;;;;;5040332;28;20287;-78
2021/03/24 08:50:29;;;;;;;54.08;36.55;;;18.20;99.90;;;;;;5040357;28;20679;-77
2021/03/24 08:53:07;;;;;;;55.53;35.15;;;18.70;99.90;;;;;;5038311;28;20302;-77
2021/03/24 08:55:51;;;;;;;50.78;33.95;;;18.70;99.90;;;;;;5040119;28;20196;-78
2021/03/24 08:58:24;;;;;;;55.03;35.10;;;18.30;99.90;;;;;;5040312;28;20290;-77
2021/03/24 09:01:29;;;;;;;53.13;34.28;;;18.20;99.90;;;;;;5039940;28;20659;-77
2021/03/24 09:04:31;;;;;;;53.75;34.38;;;18.10;99.90;;;;;;5039577;28;20663;-77
2021/03/24 09:07:04;;;;;;;53.25;34.80;;;18.50;99.90;;;;;;5042041;28;20257;-78
2021/03/24 09:09:48;;;;;;;45.90;32.25;;;18.60;99.90;;;;;;5039437;28;20214;-78
2021/03/24 09:12:22;;;;;;;53.00;33.35;;;18.80;99.90;;;;;;5040408;28;20222;-78
2021/03/24 09:14:54;;;;;;;52.58;33.40;;;19.50;99.90;;;;;;5040552;28;20208;-77
2021/03/24 09:17:51;;;;;;;46.65;31.42;;;20.00;99.90;;;;;;5038454;28;20197;-77
2021/03/24 09:20:51;;;;;;;49.50;32.85;;;20.00;99.90;;;;;;5039417;28;20302;-78
2021/03/24 09:23:43;;;;;;;41.90;29.35;;;19.90;99.90;;;;;;5039797;28;20218;-78
2021/03/24 09:26:40;;;;;;;41.67;27.17;;;19.40;99.90;;;;;;5039650;28;20200;-78
2021/03/24 09:29:26;;;;;;;42.35;27.45;;;19.10;99.90;;;;;;5039722;28;20659;-78
2021/03/24 09:32:30;;;;;;;43.15;28.85;;;19.10;99.90;;;;;;5040170;28;20234;-78
2021/03/24 09:35:16;;;;;;;42.20;28.35;;;19.50;99.90;;;;;;5039098;28;20253;-78
2021/03/24 09:37:46;;;;;;;44.22;27.23;;;18.90;99.90;;;;;;5038832;28;20249;-80
2021/03/24 09:40:23;;;;;;;38.15;26.38;;;18.20;99.90;;;;;;5038498;28;20206;-78
2021/03/24 09:42:53;;;;;;;41.35;27.48;;;17.40;99.90;;;;;;5039389;28;20211;-79
2021/03/24 09:45:24;;;;;;;43.67;26.48;;;16.70;99.90;;;;;;5039211;28;20215;-78
2021/03/24 09:47:53;;;;;;;46.00;28.42;;;16.40;99.90;;;;;;5040847;28;20207;-78
2021/03/24 09:50:37;;;;;;;49.60;28.70;;;16.10;99.90;;;;;;5040197;28;20200;-78
2021/03/24 09:53:10;;;;;;;40.17;26.20;;;16.00;99.90;;;;;;5038168;28;20241;-77
2021/03/24 09:55:38;;;;;;;39.60;25.35;;;15.70;99.90;;;;;;5039582;28;20629;-78
2021/03/24 09:58:51;;;;;;;39.75;25.33;;;15.50;99.90;;;;;;5039933;28;20203;-77
2021/03/24 10:01:55;;;;;;;42.10;26.25;;;15.60;99.90;;;;;;5038571;28;20187;-78
2021/03/24 10:04:40;;;;;;;42.55;25.10;;;15.70;99.90;;;;;;4976585;28;20213;-76
2021/03/24 10:07:10;;;;;;;44.00;26.77;;;15.70;99.90;;;;;;5036021;28;20696;-77
2021/03/24 10:09:40;;;;;;;45.92;25.63;;;15.60;99.90;;;;;;5038216;28;20287;-77
2021/03/24 10:12:18;;;;;;;39.22;24.20;;;15.70;99.90;;;;;;5037978;28;20207;-78
2021/03/24 10:14:52;;;;;;;36.40;22.92;;;15.80;99.90;;;;;;5039777;28;20204;-78
2021/03/24 10:17:24;;;;;;;40.80;24.17;;;15.70;99.90;;;;;;5038338;28;20277;-78
2021/03/24 10:19:57;;;;;;;41.30;24.98;;;15.70;99.90;;;;;;5038780;28;20223;-78
2021/03/24 10:22:26;;;;;;;39.60;24.67;;;15.60;99.90;;;;;;5039363;28;20560;-79
2021/03/24 10:25:06;;;;;;;36.25;23.75;;;15.70;99.90;;;;;;5039932;28;20575;-78
2021/03/24 10:27:34;;;;;;;34.67;23.02;;;15.60;99.90;;;;;;5039774;28;20226;-78
2021/03/24 10:30:27;;;;;;;32.75;22.23;;;15.50;99.90;;;;;;5039825;28;20204;-78
2021/03/24 10:33:04;;;;;;;36.97;23.77;;;15.50;99.90;;;;;;5039010;28;21432;-77
2021/03/24 10:35:35;;;;;;;36.88;23.58;;;15.20;99.90;;;;;;5038981;28;20537;-79
2021/03/24 10:38:13;;;;;;;36.88;22.90;;;15.20;99.90;;;;;;5038452;28;20239;-79
2021/03/24 10:40:43;;;;;;;35.92;23.20;;;15.20;99.90;;;;;;5051419;28;20203;-80
2021/03/24 10:43:15;;;;;;;33.90;21.45;;;15.20;99.90;;;;;;5051530;28;20230;-80
2021/03/24 10:45:48;;;;;;;36.90;21.38;;;15.20;99.90;;;;;;5051856;28;20246;-81
2021/03/24 10:48:21;;;;;;;36.28;23.25;;;15.30;99.90;;;;;;5052870;28;20343;-79
2021/03/24 10:50:51;;;;;;;38.10;22.88;;;15.40;99.90;;;;;;5052574;28;20655;-79
2021/03/24 10:53:23;;;;;;;36.13;21.95;;;15.40;99.90;;;;;;5043665;28;20215;-79
2021/03/24 10:56:01;;;;;;;38.20;22.90;;;15.40;99.90;;;;;;5052740;28;20206;-80
2021/03/24 10:58:48;;;;;;;40.03;22.63;;;15.60;99.90;;;;;;5052943;28;20227;-79
2021/03/24 11:01:18;;;;;;;37.60;22.98;;;15.50;99.90;;;;;;5052783;28;20199;-78
2021/03/24 11:04:02;;;;;;;40.08;23.92;;;15.40;99.90;;;;;;5045338;28;20226;-77
2021/03/24 11:06:35;;;;;;;38.50;24.83;;;15.40;99.90;;;;;;5034763;28;20200;-78
2021/03/24 11:09:08;;;;;;;32.63;22.38;;;15.60;99.90;;;;;;5048470;28;20208;-79
2021/03/24 11:11:40;;;;;;;34.53;21.75;;;15.40;99.90;;;;;;5043683;28;20192;-78
2021/03/24 11:14:13;;;;;;;34.72;21.77;;;15.50;99.90;;;;;;5044202;28;20200;-78
2021/03/24 11:16:42;;;;;;;39.15;23.67;;;15.50;99.90;;;;;;5043343;28;20194;-79
2021/03/24 11:19:17;;;;;;;32.42;20.95;;;15.50;99.90;;;;;;5048893;28;20211;-79
2021/03/24 11:21:52;;;;;;;37.55;21.35;;;15.60;99.90;;;;;;5043441;28;20252;-77
2021/03/24 11:24:22;;;;;;;37.40;21.90;;;15.50;99.90;;;;;;5040175;28;20206;-79
2021/03/24 11:27:03;;;;;;;34.40;22.42;;;15.30;99.90;;;;;;5044350;28;20199;-78
2021/03/24 11:29:33;;;;;;;33.30;20.95;;;15.50;99.90;;;;;;5044151;28;20626;-82
2021/03/24 11:32:04;;;;;;;34.08;22.77;;;15.60;99.90;;;;;;5045356;28;20276;-78
2021/03/24 11:34:38;;;;;;;30.77;21.17;;;15.70;99.90;;;;;;5048440;28;20223;-79
2021/03/24 11:37:11;;;;;;;28.38;19.50;;;15.60;99.90;;;;;;5046745;28;20210;-78
2021/03/24 11:39:46;;;;;;;30.83;20.33;;;15.60;99.90;;;;;;5052841;28;20203;-79
2021/03/24 11:42:15;;;;;;;40.22;22.67;;;15.60;99.90;;;;;;5052547;28;20195;-78
2021/03/24 11:44:43;;;;;;;32.28;21.23;;;15.70;99.90;;;;;;5052458;28;20207;-80
2021/03/24 11:47:29;;;;;;;35.50;21.20;;;15.70;99.90;;;;;;5052373;28;20218;-78
2021/03/24 11:50:02;;;;;;;31.95;21.13;;;15.70;99.90;;;;;;5042370;28;20200;-78
2021/03/24 11:52:48;;;;;;;34.33;21.77;;;15.70;99.90;;;;;;5042369;28;20257;-79
2021/03/24 11:55:40;;;;;;;35.08;21.92;;;15.80;99.90;;;;;;5050880;28;20282;-80
2021/03/24 11:58:22;;;;;;;32.85;21.38;;;15.70;99.90;;;;;;5063074;28;20252;-80
2021/03/24 12:00:54;;;;;;;30.30;21.02;;;15.70;99.90;;;;;;5043721;28;20585;-81
2021/03/24 12:03:49;;;;;;;32.55;21.10;;;15.80;99.90;;;;;;5052325;28;20216;-80
2021/03/24 12:06:38;;;;;;;29.13;19.58;;;15.80;99.90;;;;;;5051616;28;20191;-81
2021/03/24 12:09:10;;;;;;;38.05;20.60;;;15.90;99.90;;;;;;5051362;28;20290;-81
2021/03/24 12:11:40;;;;;;;31.58;21.08;;;16.00;99.90;;;;;;5052432;28;20195;-83
2021/03/24 12:14:15;;;;;;;33.85;20.65;;;16.00;99.90;;;;;;5052422;28;20257;-82
2021/03/24 12:16:50;;;;;;;32.85;20.63;;;16.00;99.90;;;;;;5051910;28;20773;-82
2021/03/24 12:19:29;;;;;;;30.70;19.10;;;15.80;99.90;;;;;;5045873;28;20289;-82
2021/03/24 12:21:59;;;;;;;31.25;19.83;;;15.90;99.90;;;;;;5046448;28;20207;-84
2021/03/24 12:24:30;;;;;;;28.42;19.27;;;15.90;99.90;;;;;;5052013;28;20208;-82
2021/03/24 12:27:08;;;;;;;33.05;19.90;;;16.00;99.90;;;;;;5044494;28;20294;-84
2021/03/24 12:29:36;;;;;;;28.08;18.63;;;15.70;99.90;;;;;;5049419;28;20275;-85
2021/03/24 12:32:07;;;;;;;31.08;18.33;;;15.80;99.90;;;;;;5052270;28;20310;-85
2021/03/24 12:34:42;;;;;;;30.38;17.92;;;15.80;99.90;;;;;;5055068;28;20616;-85
2021/03/24 12:37:23;;;;;;;30.58;17.40;;;15.90;99.90;;;;;;5056045;28;20199;-83
2021/03/24 12:39:51;;;;;;;29.40;18.35;;;15.90;99.90;;;;;;5055428;28;20196;-85
2021/03/24 12:42:22;;;;;;;28.50;17.92;;;15.90;99.90;;;;;;5055856;28;20267;-84
2021/03/24 12:44:49;;;;;;;27.55;18.58;;;15.90;99.90;;;;;;5055235;28;20200;-84
2021/03/24 12:47:30;;;;;;;30.45;19.58;;;15.90;99.90;;;;;;5045073;28;20200;-82
2021/03/24 12:50:26;;;;;;;26.60;17.70;;;15.80;99.90;;;;;;5043511;28;20195;-81
2021/03/24 12:53:03;;;;;;;26.55;17.38;;;15.80;99.90;;;;;;5048899;28;20329;-83
2021/03/24 12:55:31;;;;;;;28.70;16.70;;;15.80;99.90;;;;;;5043526;28;20198;-83
2021/03/24 12:58:21;;;;;;;28.50;17.65;;;16.00;99.90;;;;;;5040144;28;20238;-82
2021/03/24 13:00:58;;;;;;;35.90;17.38;;;16.10;99.90;;;;;;5039242;28;20637;-83
2021/03/24 13:04:04;;;;;;;27.13;17.48;;;16.00;99.90;;;;;;5040382;28;20250;-82
2021/03/24 13:06:43;;;;;;;28.58;16.67;;;16.10;99.90;;;;;;5045812;28;20651;-84
2021/03/24 13:09:25;;;;;;;26.42;17.05;;;16.10;99.90;;;;;;5046751;28;20211;-82
2021/03/24 13:12:00;;;;;;;29.27;16.27;;;16.10;99.90;;;;;;5046072;28;20596;-81
2021/03/24 13:14:56;;;;;;;25.60;16.15;;;16.30;99.90;;;;;;5041551;28;20227;-82
2021/03/24 13:17:33;;;;;;;26.77;16.27;;;16.20;99.90;;;;;;5047292;28;20537;-81
2021/03/24 13:20:16;;;;;;;24.23;16.20;;;16.20;99.90;;;;;;5045994;28;20585;-81